Terminal Aerodrome Forecast
Issued by NWS Memphis, TN

Home | Current Version | Previous Version | Text Only | Print | Product List | Glossary On
Versions: 1 2 3 4 5 6 7 8 9 10 11 12 13 14 15 16 17 18 19 20
000
FTUS44 KMEG 221020 AAC
TAFMKL
TAF AMD
KMKL 221020Z 2210/2306 00000KT P6SM SKC
      TEMPO 2210/2213 4SM BR
     FM221500 06006KT P6SM SKC
     FM230100 00000KT P6SM SCT150=

USA.gov is the U.S. government's official web portal to all federal, state and local government web resources and services.